Time;durP1;ratioP1;P1;durP2;ratioP2;P2;SDS_P1;SDS_P2;PMS_P1;PMS_P2;Temp;Humidity;BMP_temperature;BMP_pressure;BME280_temperature;BME280_humidity;BME280_pressure;Samples;Min_cycle;Max_cycle;Signal;HPM_P1;HPM_P2
2021/06/16 00:00:18;;;;;;;18.40;15.75;;;19.60;90.40;;;;;;2041593;29;20067;-75
2021/06/16 00:01:19;;;;;;;18.30;16.33;;;19.60;90.50;;;;;;2041673;29;20835;-75
2021/06/16 00:02:20;;;;;;;21.13;16.50;;;19.60;90.50;;;;;;2033366;29;20028;-73
2021/06/16 00:03:20;;;;;;;19.70;16.17;;;19.60;90.50;;;;;;2033343;29;20032;-74
2021/06/16 00:04:21;;;;;;;16.75;14.95;;;19.60;90.60;;;;;;2041124;29;20111;-73
2021/06/16 00:05:30;;;;;;;17.50;15.68;;;19.50;90.60;;;;;;2040862;29;20032;-75
2021/06/16 00:06:31;;;;;;;20.25;15.68;;;19.50;90.60;;;;;;2032802;29;20028;-75
2021/06/16 00:07:33;;;;;;;17.90;15.75;;;19.50;90.70;;;;;;2032804;29;20765;-74
2021/06/16 00:08:33;;;;;;;18.33;16.40;;;19.50;90.80;;;;;;2031549;29;20357;-75
2021/06/16 00:09:34;;;;;;;18.88;15.90;;;19.50;90.80;;;;;;2032575;29;20039;-74
2021/06/16 00:10:35;;;;;;;18.58;16.58;;;19.40;90.90;;;;;;2040964;29;20483;-74
2021/06/16 00:11:36;;;;;;;18.90;16.05;;;19.40;90.90;;;;;;2025427;29;20033;-73
2021/06/16 00:12:37;;;;;;;18.58;16.58;;;19.40;90.90;;;;;;2025565;29;20038;-74
2021/06/16 00:13:38;;;;;;;18.95;16.92;;;19.40;91.00;;;;;;2041661;29;20114;-74
2021/06/16 00:14:38;;;;;;;21.77;16.75;;;19.40;91.10;;;;;;2033504;29;20052;-74
2021/06/16 00:15:42;;;;;;;18.80;16.50;;;19.40;91.10;;;;;;2033352;29;20035;-73
2021/06/16 00:16:42;;;;;;;19.33;17.23;;;19.40;91.10;;;;;;2041862;29;20047;-74
2021/06/16 00:17:43;;;;;;;18.20;16.27;;;19.30;91.20;;;;;;2042078;29;20063;-74
2021/06/16 00:18:44;;;;;;;18.80;16.48;;;19.30;91.20;;;;;;2032806;29;20036;-74
2021/06/16 00:19:45;;;;;;;19.45;17.35;;;19.30;91.30;;;;;;2025852;29;20029;-74
2021/06/16 00:20:46;;;;;;;18.02;16.08;;;19.30;91.30;;;;;;2025935;29;20038;-74
2021/06/16 00:21:46;;;;;;;18.23;16.33;;;19.30;91.40;;;;;;2025921;29;20809;-74
2021/06/16 00:22:47;;;;;;;18.40;16.45;;;19.30;91.40;;;;;;2033858;29;20412;-75
2021/06/16 00:23:48;;;;;;;17.83;15.93;;;19.30;91.40;;;;;;2046648;29;20068;-75
2021/06/16 00:24:49;;;;;;;17.88;15.98;;;19.20;91.40;;;;;;2047779;29;20487;-76
2021/06/16 00:25:50;;;;;;;18.48;16.58;;;19.20;91.50;;;;;;2047565;29;20028;-74
2021/06/16 00:26:50;;;;;;;18.20;16.30;;;19.20;91.60;;;;;;2045853;29;20075;-75
2021/06/16 00:27:51;;;;;;;18.55;16.55;;;19.20;91.60;;;;;;2039855;29;20080;-76
2021/06/16 00:28:52;;;;;;;20.02;16.40;;;19.20;91.60;;;;;;2032866;29;20476;-74
2021/06/16 00:29:52;;;;;;;19.35;15.98;;;19.20;91.60;;;;;;2041229;29;20057;-74
2021/06/16 00:30:53;;;;;;;19.98;17.95;;;19.20;91.60;;;;;;2042055;29;20038;-74
2021/06/16 00:31:54;;;;;;;18.33;16.15;;;19.10;91.70;;;;;;2033446;29;20491;-75
2021/06/16 00:32:55;;;;;;;18.50;16.40;;;19.20;91.80;;;;;;2033454;29;20428;-74
2021/06/16 00:33:56;;;;;;;21.17;16.73;;;19.20;91.80;;;;;;2041950;29;20032;-77
2021/06/16 00:34:57;;;;;;;18.48;16.20;;;19.10;91.80;;;;;;2033647;29;20040;-74
2021/06/16 00:35:58;;;;;;;17.17;15.38;;;19.10;91.90;;;;;;2033282;29;20037;-75
2021/06/16 00:36:59;;;;;;;17.83;15.95;;;19.10;91.90;;;;;;2041002;29;20480;-74
2021/06/16 00:37:59;;;;;;;17.38;15.23;;;19.10;92.00;;;;;;2041379;29;20147;-76
2021/06/16 00:39:00;;;;;;;17.90;15.25;;;19.10;92.30;;;;;;2041436;29;20062;-75
2021/06/16 00:40:04;;;;;;;18.02;16.13;;;19.10;92.00;;;;;;2041197;29;20031;-74
2021/06/16 00:41:06;;;;;;;17.50;15.70;;;19.10;92.10;;;;;;2041556;29;20372;-74
2021/06/16 00:42:07;;;;;;;16.98;15.23;;;19.10;92.20;;;;;;2041342;29;20031;-75
2021/06/16 00:43:08;;;;;;;17.40;15.07;;;19.10;92.20;;;;;;2041404;29;20031;-75
2021/06/16 00:44:09;;;;;;;17.08;15.25;;;19.10;92.30;;;;;;2041466;29;20399;-74
2021/06/16 00:45:11;;;;;;;16.70;15.07;;;19.10;92.70;;;;;;2033208;29;20020;-74
2021/06/16 00:46:11;;;;;;;15.80;14.15;;;19.00;92.30;;;;;;2033115;29;20040;-74
2021/06/16 00:47:14;;;;;;;17.00;14.95;;;19.00;92.40;;;;;;2032910;29;20020;-74
2021/06/16 00:48:15;;;;;;;16.75;14.95;;;19.00;92.40;;;;;;2032354;29;20020;-74
2021/06/16 00:49:16;;;;;;;16.30;14.60;;;19.00;92.40;;;;;;2040835;29;20041;-74
2021/06/16 00:50:17;;;;;;;16.00;14.30;;;19.00;92.50;;;;;;2040823;29;20039;-73
2021/06/16 00:51:17;;;;;;;15.73;14.13;;;19.00;92.50;;;;;;2041481;29;20027;-73
2021/06/16 00:52:18;;;;;;;16.27;14.57;;;19.00;92.50;;;;;;2041268;29;20032;-73
2021/06/16 00:53:19;;;;;;;17.33;15.13;;;19.00;92.50;;;;;;2041546;29;20059;-74
2021/06/16 00:54:19;;;;;;;16.70;14.77;;;19.00;92.60;;;;;;2041452;29;20734;-74
2021/06/16 00:55:20;;;;;;;17.27;15.02;;;19.00;92.70;;;;;;2041603;29;20051;-74
2021/06/16 00:56:21;;;;;;;16.63;14.93;;;19.00;92.70;;;;;;2041407;29;20039;-74
2021/06/16 00:57:22;;;;;;;17.60;15.70;;;19.00;92.70;;;;;;2033023;29;20070;-75
2021/06/16 00:58:22;;;;;;;17.92;15.70;;;19.00;92.80;;;;;;2032236;29;20044;-75
2021/06/16 00:59:24;;;;;;;18.65;16.27;;;19.00;92.80;;;;;;2041932;29;20055;-74
2021/06/16 01:00:34;;;;;;;19.35;16.20;;;18.90;92.80;;;;;;2041735;29;20122;-74
2021/06/16 01:01:48;;;;;;;17.38;15.32;;;18.90;92.80;;;;;;2042699;29;20417;-73
2021/06/16 01:03:23;;;;;;;19.88;16.65;;;18.90;92.90;;;;;;2045036;29;20043;-73
2021/06/16 01:04:29;;;;;;;21.25;16.02;;;18.90;92.90;;;;;;2036006;29;20087;-73
2021/06/16 01:05:55;;;;;;;18.38;16.40;;;18.90;93.00;;;;;;2035379;29;20558;-74
2021/06/16 01:07:06;;;;;;;18.63;16.35;;;18.90;93.00;;;;;;2037628;29;20058;-74
2021/06/16 01:08:07;;;;;;;18.95;16.48;;;18.90;93.10;;;;;;2031579;29;20052;-74
2021/06/16 01:09:18;;;;;;;17.95;16.00;;;18.90;93.20;;;;;;2024850;29;20063;-73
2021/06/16 01:10:22;;;;;;;19.50;16.63;;;18.90;93.20;;;;;;2033768;29;20028;-73
2021/06/16 01:11:24;;;;;;;21.63;17.50;;;18.90;93.10;;;;;;2032405;29;20104;-74
2021/06/16 01:12:43;;;;;;;21.20;17.17;;;18.90;93.20;;;;;;2032388;29;20032;-74
2021/06/16 01:13:54;;;;;;;22.25;17.90;;;18.90;93.20;;;;;;2026889;29;20444;-74
2021/06/16 01:15:11;;;;;;;21.05;18.23;;;18.80;93.30;;;;;;2033639;29;20024;-74
2021/06/16 01:16:20;;;;;;;20.88;18.33;;;18.80;93.30;;;;;;2040410;29;20042;-74
2021/06/16 01:17:41;;;;;;;19.35;17.15;;;18.80;93.40;;;;;;2040839;29;20118;-74
2021/06/16 01:18:54;;;;;;;19.80;17.65;;;18.80;93.40;;;;;;2039781;29;20388;-74
2021/06/16 01:19:58;;;;;;;19.33;17.20;;;18.80;93.50;;;;;;2040926;29;20086;-75
2021/06/16 01:21:00;;;;;;;18.95;16.95;;;18.70;93.50;;;;;;2032289;29;20806;-74
2021/06/16 01:22:11;;;;;;;18.77;16.88;;;18.80;93.50;;;;;;2032393;29;20027;-75
2021/06/16 01:23:31;;;;;;;19.80;17.30;;;18.70;93.50;;;;;;2032295;29;20036;-76
2021/06/16 01:24:31;;;;;;;20.77;16.95;;;18.70;93.60;;;;;;2026958;29;20462;-75
2021/06/16 01:26:00;;;;;;;18.80;16.80;;;18.70;93.60;;;;;;2032337;29;20028;-74
2021/06/16 01:27:01;;;;;;;19.67;17.58;;;18.70;93.60;;;;;;2032472;29;20020;-75
2021/06/16 01:28:02;;;;;;;19.13;17.13;;;18.70;93.60;;;;;;2031856;29;20032;-74
2021/06/16 01:29:09;;;;;;;17.67;15.88;;;18.70;93.70;;;;;;2040124;29;20024;-75
2021/06/16 01:30:10;;;;;;;17.83;16.02;;;18.70;93.70;;;;;;2040729;29;20095;-75
2021/06/16 01:31:14;;;;;;;18.08;15.63;;;18.70;93.70;;;;;;2040689;29;20032;-75
2021/06/16 01:32:15;;;;;;;18.63;16.73;;;18.70;93.80;;;;;;2032162;29;20122;-75
2021/06/16 01:33:17;;;;;;;18.23;16.25;;;18.70;93.80;;;;;;2032334;29;20043;-75
2021/06/16 01:34:21;;;;;;;20.88;17.25;;;18.70;93.80;;;;;;2032189;29;20059;-74
2021/06/16 01:35:25;;;;;;;19.95;17.77;;;18.70;93.80;;;;;;2032349;29;20055;-74
2021/06/16 01:36:27;;;;;;;19.00;16.85;;;18.70;93.90;;;;;;2032625;29;20123;-75
2021/06/16 01:37:28;;;;;;;21.38;17.52;;;18.70;93.90;;;;;;2032162;29;20080;-75
2021/06/16 01:38:31;;;;;;;20.20;17.45;;;18.70;93.80;;;;;;2031404;29;20090;-74
2021/06/16 01:39:34;;;;;;;22.58;18.98;;;18.60;93.80;;;;;;2032287;29;20063;-74
2021/06/16 01:40:37;;;;;;;21.17;17.75;;;18.60;93.80;;;;;;2032797;29;20096;-74
2021/06/16 01:41:40;;;;;;;21.48;18.02;;;18.60;93.90;;;;;;2040674;29;20032;-73
2021/06/16 01:42:42;;;;;;;19.98;17.75;;;18.60;93.90;;;;;;2040652;29;20023;-74
2021/06/16 01:43:44;;;;;;;20.90;18.38;;;18.60;93.90;;;;;;2032260;29;20451;-74
2021/06/16 01:44:46;;;;;;;21.15;17.65;;;18.60;94.00;;;;;;2024595;29;20062;-74
2021/06/16 01:45:49;;;;;;;20.08;17.80;;;18.60;94.00;;;;;;2024220;29;20048;-74
2021/06/16 01:46:52;;;;;;;20.73;18.52;;;18.60;94.10;;;;;;2024506;29;20052;-74
2021/06/16 01:47:57;;;;;;;20.98;18.40;;;18.60;94.10;;;;;;2024507;29;20028;-74
2021/06/16 01:48:58;;;;;;;21.08;17.85;;;18.50;94.10;;;;;;2031849;29;20029;-74
2021/06/16 01:50:02;;;;;;;20.08;17.98;;;18.50;94.20;;;;;;2039871;29;20167;-75
2021/06/16 01:51:05;;;;;;;20.67;18.30;;;18.50;94.20;;;;;;2040501;29;20032;-74
2021/06/16 01:52:06;;;;;;;21.25;18.77;;;18.50;94.30;;;;;;2040396;29;20095;-75
2021/06/16 01:53:08;;;;;;;22.05;18.85;;;18.50;94.30;;;;;;2040471;29;20031;-74
2021/06/16 01:54:11;;;;;;;21.02;18.58;;;18.50;94.30;;;;;;2040453;29;20399;-74
2021/06/16 01:55:13;;;;;;;20.67;18.42;;;18.50;94.30;;;;;;2032471;29;20032;-75
2021/06/16 01:56:14;;;;;;;22.80;19.13;;;18.50;94.40;;;;;;2032736;29;20036;-75
2021/06/16 01:57:15;;;;;;;20.73;18.52;;;18.40;94.40;;;;;;2032603;29;20051;-74
2021/06/16 01:58:18;;;;;;;114.47;64.40;;;18.40;94.40;;;;;;2031770;29;20507;-74
2021/06/16 01:59:21;;;;;;;401.85;200.60;;;18.40;94.40;;;;;;2040955;29;20494;-74
2021/06/16 02:00:22;;;;;;;486.08;258.35;;;18.40;94.50;;;;;;2041490;29;20043;-74
2021/06/16 02:01:25;;;;;;;487.02;262.02;;;18.40;94.50;;;;;;2042147;29;20108;-75
2021/06/16 02:02:26;;;;;;;479.65;253.38;;;18.40;94.70;;;;;;2042420;29;20107;-74
2021/06/16 02:03:27;;;;;;;418.25;208.80;;;18.30;94.70;;;;;;2043155;29;20039;-74
2021/06/16 02:04:28;;;;;;;334.60;161.07;;;18.30;94.70;;;;;;2042813;29;20499;-75
2021/06/16 02:05:30;;;;;;;294.13;135.88;;;18.30;94.80;;;;;;2042500;29;20031;-75
2021/06/16 02:06:39;;;;;;;205.75;99.28;;;18.30;94.80;;;;;;2042152;29;20685;-74
2021/06/16 02:07:44;;;;;;;106.25;54.38;;;18.30;94.90;;;;;;2041715;29;20027;-74
2021/06/16 02:08:48;;;;;;;49.50;31.23;;;18.30;94.90;;;;;;2040170;29;20103;-74
2021/06/16 02:09:51;;;;;;;39.20;28.33;;;18.30;94.80;;;;;;2040891;29;20035;-74
2021/06/16 02:10:53;;;;;;;41.63;26.95;;;18.30;94.80;;;;;;2040725;29;20086;-74
2021/06/16 02:11:53;;;;;;;34.42;25.48;;;18.30;94.80;;;;;;2041104;29;20031;-74
2021/06/16 02:12:57;;;;;;;34.55;24.88;;;18.30;94.80;;;;;;2041112;29;20487;-74
2021/06/16 02:14:00;;;;;;;29.35;23.00;;;18.30;94.90;;;;;;2041625;29;20051;-74
2021/06/16 02:15:06;;;;;;;27.10;22.48;;;18.30;94.90;;;;;;2032781;29;20038;-74
2021/06/16 02:16:13;;;;;;;28.83;22.83;;;18.30;95.00;;;;;;2025926;29;20075;-74
2021/06/16 02:17:16;;;;;;;30.48;22.10;;;18.20;94.90;;;;;;2032525;29;20087;-74
2021/06/16 02:18:21;;;;;;;28.80;21.92;;;18.20;95.10;;;;;;2032153;29;20051;-74
2021/06/16 02:19:26;;;;;;;25.90;21.80;;;18.20;95.10;;;;;;2041074;29;20031;-76
2021/06/16 02:20:28;;;;;;;26.13;21.77;;;18.20;95.10;;;;;;2040416;29;20031;-75
2021/06/16 02:21:29;;;;;;;26.08;21.40;;;18.20;95.10;;;;;;2032031;29;20020;-75
2021/06/16 02:22:29;;;;;;;26.90;21.83;;;18.20;95.10;;;;;;2032004;29;20606;-75
2021/06/16 02:23:30;;;;;;;23.75;21.15;;;18.20;95.10;;;;;;2032020;29;20031;-75
2021/06/16 02:24:31;;;;;;;25.08;20.95;;;18.20;95.10;;;;;;2040503;29;20024;-75
2021/06/16 02:25:32;;;;;;;25.33;21.27;;;18.20;95.20;;;;;;2040481;29;20035;-75
2021/06/16 02:26:33;;;;;;;24.35;20.58;;;18.20;95.20;;;;;;2040546;29;20067;-74
2021/06/16 02:27:34;;;;;;;28.80;22.08;;;18.20;95.20;;;;;;2032286;29;20059;-74
2021/06/16 02:28:35;;;;;;;26.88;21.98;;;18.10;95.20;;;;;;2031185;29;20032;-76
2021/06/16 02:29:35;;;;;;;24.55;21.70;;;18.10;95.20;;;;;;2032251;29;20063;-75
2021/06/16 02:30:36;;;;;;;26.10;21.17;;;18.10;95.20;;;;;;2040668;29;20032;-74
2021/06/16 02:31:39;;;;;;;24.85;21.00;;;18.10;95.30;;;;;;2040610;29;20390;-74
2021/06/16 02:32:40;;;;;;;24.45;21.70;;;18.10;95.40;;;;;;2040611;29;20719;-75
2021/06/16 02:33:40;;;;;;;25.63;21.70;;;18.10;95.50;;;;;;2032238;29;20071;-75
2021/06/16 02:34:41;;;;;;;24.77;21.20;;;18.10;95.90;;;;;;2024276;29;20035;-74
2021/06/16 02:35:42;;;;;;;25.15;21.60;;;18.00;95.50;;;;;;2032408;29;20468;-75
2021/06/16 02:36:45;;;;;;;26.90;22.30;;;18.10;95.60;;;;;;2040172;29;20040;-74
2021/06/16 02:37:52;;;;;;;24.15;21.55;;;18.00;95.50;;;;;;2040969;29;20030;-75
2021/06/16 02:38:57;;;;;;;24.23;21.00;;;18.00;95.60;;;;;;2039253;29;20067;-74
2021/06/16 02:40:04;;;;;;;24.15;20.73;;;18.00;95.60;;;;;;2040472;29;20032;-75
2021/06/16 02:41:09;;;;;;;28.02;22.20;;;18.00;95.70;;;;;;2040827;29;20031;-76
2021/06/16 02:42:11;;;;;;;25.77;21.77;;;18.00;95.70;;;;;;2040693;29;20122;-74
2021/06/16 02:43:12;;;;;;;26.65;22.90;;;18.00;95.80;;;;;;2032067;29;20484;-74
2021/06/16 02:44:14;;;;;;;26.83;23.08;;;18.00;95.80;;;;;;2031913;29;20644;-74
2021/06/16 02:45:17;;;;;;;26.42;22.05;;;18.00;95.70;;;;;;2040486;29;20168;-75
2021/06/16 02:46:19;;;;;;;25.10;21.92;;;17.90;95.80;;;;;;2031666;29;20587;-74
2021/06/16 02:47:21;;;;;;;25.70;22.75;;;17.90;95.80;;;;;;2032136;29;20024;-74
2021/06/16 02:48:23;;;;;;;24.35;21.67;;;18.00;95.80;;;;;;2030824;29;20100;-75
2021/06/16 02:49:33;;;;;;;24.35;21.30;;;17.90;95.80;;;;;;2032010;29;20032;-74
2021/06/16 02:50:36;;;;;;;26.20;23.07;;;17.90;95.90;;;;;;2040451;29;20043;-75
2021/06/16 02:51:40;;;;;;;24.25;21.10;;;17.90;95.90;;;;;;2040240;29;20636;-74
2021/06/16 02:52:44;;;;;;;24.30;21.70;;;17.90;96.00;;;;;;2040335;29;20042;-74
2021/06/16 02:53:46;;;;;;;25.40;21.90;;;17.90;96.00;;;;;;2041718;29;20040;-75
2021/06/16 02:54:52;;;;;;;25.63;22.83;;;17.90;96.00;;;;;;2041813;29;20024;-75
2021/06/16 02:55:55;;;;;;;24.88;22.17;;;17.90;96.00;;;;;;2041942;29;20102;-75
2021/06/16 02:56:57;;;;;;;23.88;21.30;;;17.90;96.10;;;;;;2041782;29;20032;-74
2021/06/16 02:57:58;;;;;;;24.27;21.08;;;17.90;96.10;;;;;;2041787;29;20032;-75
2021/06/16 02:58:59;;;;;;;25.73;21.75;;;17.90;96.20;;;;;;2041198;29;20459;-74
2021/06/16 03:00:03;;;;;;;23.00;20.50;;;17.90;96.20;;;;;;2041441;29;20036;-72
2021/06/16 03:01:08;;;;;;;26.83;21.73;;;17.90;96.20;;;;;;2041725;29;20027;-74
2021/06/16 03:02:09;;;;;;;24.33;21.73;;;17.90;96.30;;;;;;2042308;29;20103;-74
2021/06/16 03:03:09;;;;;;;25.85;22.38;;;17.90;96.20;;;;;;2041374;29;20043;-74
2021/06/16 03:04:12;;;;;;;25.13;21.52;;;17.90;96.20;;;;;;2041478;29;20114;-74
2021/06/16 03:05:18;;;;;;;24.35;21.75;;;17.90;96.30;;;;;;2042251;29;20461;-74
2021/06/16 03:06:21;;;;;;;23.00;20.60;;;17.90;96.30;;;;;;2042349;29;20028;-74
2021/06/16 03:07:22;;;;;;;25.17;21.13;;;17.90;96.20;;;;;;2042145;29;20423;-76
2021/06/16 03:08:24;;;;;;;23.95;20.48;;;17.90;96.30;;;;;;2032578;29;20084;-75
2021/06/16 03:09:26;;;;;;;23.15;20.58;;;17.90;96.20;;;;;;2034010;29;20419;-74
2021/06/16 03:10:29;;;;;;;23.33;20.35;;;17.90;96.20;;;;;;2033682;29;20119;-74
2021/06/16 03:11:32;;;;;;;22.55;19.83;;;17.90;96.20;;;;;;2034187;29;20615;-75
2021/06/16 03:12:34;;;;;;;22.45;20.05;;;17.90;96.10;;;;;;2033620;29;20495;-74
2021/06/16 03:13:35;;;;;;;22.60;20.20;;;17.90;96.10;;;;;;2034385;29;20101;-74
2021/06/16 03:14:36;;;;;;;22.15;19.83;;;17.90;96.10;;;;;;2033636;29;20032;-75
2021/06/16 03:15:40;;;;;;;22.85;19.92;;;18.00;96.10;;;;;;2033549;29;20036;-74
2021/06/16 03:16:42;;;;;;;23.02;19.95;;;18.00;96.00;;;;;;2033524;29;20115;-75
2021/06/16 03:17:45;;;;;;;23.70;20.02;;;18.00;96.10;;;;;;2033829;29;20040;-73
2021/06/16 03:18:47;;;;;;;22.10;19.70;;;18.00;96.10;;;;;;2040630;29;20031;-74
2021/06/16 03:19:49;;;;;;;21.77;19.52;;;18.00;95.90;;;;;;2041904;29;20460;-73
2021/06/16 03:20:55;;;;;;;23.42;19.60;;;18.10;95.90;;;;;;2041561;29;20028;-73
2021/06/16 03:21:58;;;;;;;22.25;19.88;;;18.10;95.90;;;;;;2041635;29;20436;-73
2021/06/16 03:23:00;;;;;;;22.73;20.17;;;18.10;95.80;;;;;;2041515;29;20039;-73
2021/06/16 03:24:01;;;;;;;22.83;19.98;;;18.10;95.80;;;;;;2033039;29;20167;-74
2021/06/16 03:25:03;;;;;;;21.98;19.65;;;18.10;95.70;;;;;;2025309;29;20035;-73
2021/06/16 03:26:05;;;;;;;22.67;19.63;;;18.20;95.60;;;;;;2025444;29;20039;-73
2021/06/16 03:27:06;;;;;;;23.08;20.58;;;18.20;95.60;;;;;;2033310;29;20028;-73
2021/06/16 03:28:08;;;;;;;23.23;19.83;;;18.20;95.50;;;;;;2040642;29;20096;-73
2021/06/16 03:29:09;;;;;;;22.27;19.63;;;18.20;95.50;;;;;;2041724;29;20024;-74
2021/06/16 03:30:10;;;;;;;24.33;20.42;;;18.20;95.40;;;;;;2041380;29;20043;-72
2021/06/16 03:31:12;;;;;;;22.02;19.60;;;18.30;95.40;;;;;;2041365;29;20171;-73
2021/06/16 03:32:13;;;;;;;22.13;19.70;;;18.30;95.30;;;;;;2033150;29;20425;-73
2021/06/16 03:33:14;;;;;;;23.80;20.75;;;18.30;95.30;;;;;;2033105;29;20044;-73
2021/06/16 03:34:15;;;;;;;23.20;20.25;;;18.40;95.10;;;;;;2041482;29;20313;-73
2021/06/16 03:35:16;;;;;;;21.52;19.33;;;18.40;95.00;;;;;;2041620;29;20055;-73
2021/06/16 03:36:18;;;;;;;21.23;18.77;;;18.40;94.90;;;;;;2041537;29;20070;-73
2021/06/16 03:37:19;;;;;;;22.27;19.83;;;18.50;94.90;;;;;;2033051;29;20062;-73
2021/06/16 03:38:20;;;;;;;22.35;19.50;;;18.50;94.90;;;;;;2032184;29;20451;-73
2021/06/16 03:39:21;;;;;;;21.05;18.75;;;18.50;94.70;;;;;;2041399;29;20032;-72
2021/06/16 03:40:27;;;;;;;20.92;18.73;;;18.50;94.70;;;;;;2041850;29;20023;-74
2021/06/16 03:41:28;;;;;;;21.38;18.73;;;18.60;94.60;;;;;;2041844;29;20038;-74
2021/06/16 03:42:32;;;;;;;21.15;18.88;;;18.60;94.50;;;;;;2041035;29;20028;-75
2021/06/16 03:43:36;;;;;;;23.20;20.23;;;18.70;94.40;;;;;;2041130;29;20031;-74
2021/06/16 03:44:38;;;;;;;22.52;19.40;;;18.70;94.20;;;;;;2041600;29;20403;-75
2021/06/16 03:45:41;;;;;;;22.55;20.15;;;18.70;94.30;;;;;;2041683;29;20043;-73
2021/06/16 03:46:42;;;;;;;23.10;20.13;;;18.60;94.20;;;;;;2041820;29;20032;-73
2021/06/16 03:47:45;;;;;;;22.95;19.95;;;18.60;94.30;;;;;;2033224;29;20432;-73
2021/06/16 03:48:48;;;;;;;22.52;20.17;;;18.60;94.30;;;;;;2032544;29;20027;-74
2021/06/16 03:49:50;;;;;;;23.90;20.17;;;18.60;94.30;;;;;;2033320;29;20099;-73
2021/06/16 03:50:52;;;;;;;22.25;19.90;;;18.60;94.30;;;;;;2033184;29;20417;-74
2021/06/16 03:51:55;;;;;;;22.10;19.80;;;18.60;94.30;;;;;;2025589;29;20104;-75
2021/06/16 03:52:56;;;;;;;22.25;19.85;;;18.60;94.40;;;;;;2033473;29;20111;-74
2021/06/16 03:53:57;;;;;;;20.98;18.77;;;18.60;94.40;;;;;;2041963;29;20023;-75
2021/06/16 03:54:59;;;;;;;23.30;20.58;;;18.60;94.50;;;;;;2033264;29;20110;-76
2021/06/16 03:56:00;;;;;;;23.15;19.67;;;18.60;94.40;;;;;;2033592;29;20119;-75
2021/06/16 03:57:01;;;;;;;23.85;19.27;;;18.60;94.40;;;;;;2041709;29;20502;-75
2021/06/16 03:58:02;;;;;;;23.17;20.70;;;18.70;94.40;;;;;;2040584;29;20028;-76
2021/06/16 03:59:03;;;;;;;22.33;19.30;;;18.70;94.20;;;;;;2027637;29;20035;-75
2021/06/16 04:00:09;;;;;;;21.40;19.20;;;18.70;94.20;;;;;;2030655;29;20096;-73
2021/06/16 04:01:12;;;;;;;22.25;19.95;;;18.70;94.10;;;;;;2034642;29;20039;-74
2021/06/16 04:02:18;;;;;;;21.65;19.35;;;18.80;94.10;;;;;;2038883;29;20770;-74
2021/06/16 04:03:20;;;;;;;23.83;19.58;;;18.80;94.00;;;;;;2047165;29;20024;-74
2021/06/16 04:04:22;;;;;;;25.33;20.30;;;18.80;93.90;;;;;;2046520;29;20063;-74
2021/06/16 04:05:23;;;;;;;25.02;20.25;;;18.90;93.80;;;;;;2046343;29;20044;-74
2021/06/16 04:06:24;;;;;;;24.40;21.17;;;18.90;93.80;;;;;;2036731;29;20024;-74
2021/06/16 04:07:25;;;;;;;24.92;20.20;;;19.00;93.60;;;;;;2028278;29;20571;-75
2021/06/16 04:08:26;;;;;;;25.45;21.00;;;19.10;93.40;;;;;;2024582;29;20024;-75
2021/06/16 04:09:28;;;;;;;22.60;19.75;;;19.20;93.10;;;;;;2034546;29;20107;-75
2021/06/16 04:10:30;;;;;;;22.90;19.27;;;19.30;92.80;;;;;;2032785;29;20028;-75
2021/06/16 04:11:31;;;;;;;22.27;19.48;;;19.40;92.50;;;;;;2033624;29;20162;-75
2021/06/16 04:12:32;;;;;;;21.83;19.20;;;19.50;92.20;;;;;;2041888;29;20042;-76
2021/06/16 04:13:33;;;;;;;22.63;19.73;;;19.60;92.00;;;;;;2042010;29;20039;-76
2021/06/16 04:14:35;;;;;;;21.60;19.20;;;19.70;91.60;;;;;;2033121;29;20032;-76
2021/06/16 04:15:36;;;;;;;21.50;19.00;;;19.80;91.30;;;;;;2034645;29;20032;-75
2021/06/16 04:16:43;;;;;;;20.42;17.73;;;19.90;91.20;;;;;;2017815;29;20090;-76
2021/06/16 04:17:44;;;;;;;19.42;17.42;;;20.00;91.00;;;;;;2019059;29;20033;-75
2021/06/16 04:18:45;;;;;;;21.33;18.85;;;20.10;90.70;;;;;;2032179;29;20457;-76
2021/06/16 04:19:46;;;;;;;22.55;18.83;;;20.20;90.30;;;;;;2033049;29;20115;-75
2021/06/16 04:20:46;;;;;;;20.70;18.10;;;20.30;90.00;;;;;;2033170;29;20036;-76
2021/06/16 04:21:47;;;;;;;19.42;17.45;;;20.40;89.40;;;;;;2033019;29;20087;-75
2021/06/16 04:22:47;;;;;;;18.30;16.38;;;20.50;89.10;;;;;;2025053;29;20075;-75
2021/06/16 04:23:50;;;;;;;20.58;17.38;;;20.50;88.70;;;;;;2041264;29;20024;-75
2021/06/16 04:24:51;;;;;;;19.67;17.60;;;20.60;88.40;;;;;;2041146;29;20646;-75
2021/06/16 04:25:51;;;;;;;19.48;17.48;;;20.60;87.80;;;;;;2040602;29;20156;-75
2021/06/16 04:26:52;;;;;;;20.80;18.10;;;20.60;87.60;;;;;;2032651;29;20028;-76
2021/06/16 04:27:53;;;;;;;20.67;18.35;;;20.60;87.70;;;;;;2032825;29;20107;-75
2021/06/16 04:28:54;;;;;;;20.45;17.92;;;20.60;87.70;;;;;;2031864;29;20039;-75
2021/06/16 04:29:55;;;;;;;20.35;18.15;;;20.60;87.90;;;;;;2024961;29;20047;-75
2021/06/16 04:30:55;;;;;;;19.23;17.23;;;20.70;87.90;;;;;;2025143;29;20044;-76
2021/06/16 04:31:56;;;;;;;21.70;17.20;;;20.70;87.70;;;;;;2033143;29;20035;-74
2021/06/16 04:32:56;;;;;;;18.88;16.63;;;20.80;87.30;;;;;;2040614;29;20023;-77
2021/06/16 04:33:59;;;;;;;18.50;16.48;;;21.00;87.20;;;;;;2033125;29;20451;-75
2021/06/16 04:34:59;;;;;;;19.55;17.45;;;21.10;86.20;;;;;;2032828;29;20415;-75
2021/06/16 04:36:02;;;;;;;19.10;17.05;;;21.20;85.50;;;;;;2041438;29;20039;-76
2021/06/16 04:37:03;;;;;;;18.23;16.42;;;21.40;84.80;;;;;;2041218;29;20043;-76
2021/06/16 04:38:04;;;;;;;22.00;17.30;;;21.50;84.30;;;;;;2031803;29;20128;-76
2021/06/16 04:39:04;;;;;;;21.08;17.27;;;21.70;83.20;;;;;;2033005;29;20357;-75
2021/06/16 04:40:08;;;;;;;20.17;17.20;;;21.80;82.20;;;;;;2032650;29;20036;-75
2021/06/16 04:41:08;;;;;;;18.25;16.30;;;21.90;81.70;;;;;;2024963;29;20140;-75
2021/06/16 04:42:09;;;;;;;18.85;16.67;;;22.00;81.20;;;;;;2025347;29;20370;-76
2021/06/16 04:43:10;;;;;;;18.58;15.88;;;22.10;80.60;;;;;;2032792;29;20693;-76
2021/06/16 04:44:11;;;;;;;20.10;16.63;;;22.20;80.10;;;;;;2032826;29;20024;-75
2021/06/16 04:45:13;;;;;;;18.33;16.33;;;22.30;79.70;;;;;;2025163;29;20025;-75
2021/06/16 04:46:14;;;;;;;19.15;16.40;;;22.40;79.40;;;;;;2025703;29;20103;-75
2021/06/16 04:47:14;;;;;;;19.50;15.93;;;22.50;79.00;;;;;;2033110;29;20056;-76
2021/06/16 04:48:15;;;;;;;17.30;15.52;;;22.50;79.40;;;;;;2040309;29;20038;-75
2021/06/16 04:49:15;;;;;;;18.40;16.50;;;22.50;78.40;;;;;;2040460;29;20182;-75
2021/06/16 04:50:16;;;;;;;18.23;16.00;;;22.50;78.20;;;;;;2040526;29;20072;-75
2021/06/16 04:51:17;;;;;;;16.80;15.10;;;22.60;78.20;;;;;;2040881;29;20559;-74
2021/06/16 04:52:18;;;;;;;16.52;14.75;;;22.70;78.10;;;;;;2040563;29;20034;-74
2021/06/16 04:53:18;;;;;;;16.77;14.98;;;22.90;77.50;;;;;;2032274;29;20369;-75
2021/06/16 04:54:19;;;;;;;17.05;15.10;;;23.10;76.80;;;;;;2032299;29;20059;-74
2021/06/16 04:55:20;;;;;;;19.05;15.60;;;23.30;75.80;;;;;;2032465;29;20036;-75
2021/06/16 04:56:20;;;;;;;21.05;17.92;;;23.40;75.10;;;;;;2032387;29;20058;-74
2021/06/16 04:57:21;;;;;;;19.10;16.83;;;23.40;74.10;;;;;;2032435;29;20046;-75
2021/06/16 04:58:22;;;;;;;18.55;16.48;;;23.30;73.90;;;;;;2031653;29;20043;-74
2021/06/16 04:59:25;;;;;;;18.40;15.65;;;23.20;73.80;;;;;;2015979;29;20088;-76
2021/06/16 05:00:26;;;;;;;17.63;15.77;;;23.20;74.40;;;;;;2029600;29;20793;-73
2021/06/16 05:01:27;;;;;;;17.75;15.85;;;23.10;74.30;;;;;;2030400;29;20044;-75
2021/06/16 05:02:28;;;;;;;21.65;18.42;;;23.00;74.60;;;;;;2040847;29;20091;-75
2021/06/16 05:03:28;;;;;;;19.40;16.23;;;22.80;74.90;;;;;;2041323;29;20114;-75
2021/06/16 05:04:29;;;;;;;20.70;16.90;;;22.60;75.90;;;;;;2032700;29;20040;-74
2021/06/16 05:05:30;;;;;;;20.25;16.48;;;22.40;76.70;;;;;;2024955;29;20056;-74
2021/06/16 05:06:31;;;;;;;19.98;17.20;;;22.20;77.50;;;;;;2024463;29;20020;-74
2021/06/16 05:07:32;;;;;;;18.60;16.13;;;22.10;78.10;;;;;;2024616;29;20512;-75
2021/06/16 05:08:32;;;;;;;17.83;16.02;;;21.90;79.10;;;;;;2031731;29;20028;-75
2021/06/16 05:09:33;;;;;;;17.65;15.75;;;21.70;80.10;;;;;;2040995;29;20031;-76
2021/06/16 05:10:34;;;;;;;18.83;16.65;;;21.60;80.80;;;;;;2040206;29;20040;-74
2021/06/16 05:11:34;;;;;;;18.13;16.25;;;21.50;81.50;;;;;;2032295;29;20039;-74
2021/06/16 05:12:35;;;;;;;20.02;16.88;;;21.40;82.40;;;;;;2032216;29;20404;-73
2021/06/16 05:13:36;;;;;;;19.15;17.10;;;21.30;83.00;;;;;;2040477;29;20031;-74
2021/06/16 05:14:36;;;;;;;20.15;17.08;;;21.20;83.20;;;;;;2032258;29;20024;-74
2021/06/16 05:15:37;;;;;;;20.27;16.77;;;21.20;83.60;;;;;;2024282;29;20407;-75
2021/06/16 05:16:40;;;;;;;24.38;19.58;;;21.20;83.80;;;;;;2031973;29;20513;-74